createdAt,value
2018-11-28T00:03:41.454Z,70.60
2018-11-28T00:06:10.071Z,64.60
2018-11-28T00:08:37.607Z,68.17
2018-11-28T00:11:05.277Z,69.23
2018-11-28T00:13:32.790Z,63.77
2018-11-28T00:16:00.380Z,67.90
2018-11-28T00:18:28.881Z,78.77
2018-11-28T00:20:56.565Z,61.60
2018-11-28T00:23:24.088Z,66.07
2018-11-28T00:25:51.526Z,68.17
2018-11-28T00:28:19.564Z,63.07
2018-11-28T00:30:47.625Z,62.93
2018-11-28T00:33:15.255Z,72.23
2018-11-28T00:35:42.753Z,61.70
2018-11-28T00:38:10.223Z,62.30
2018-11-28T00:40:37.672Z,64.97
2018-11-28T00:43:05.537Z,67.73
2018-11-28T00:45:33.085Z,74.73
2018-11-28T00:48:00.612Z,72.97
2018-11-28T00:50:28.154Z,73.13
2018-11-28T00:52:55.602Z,73.00
2018-11-28T00:55:23.144Z,77.37
2018-11-28T00:57:54.097Z,71.70
2018-11-28T01:00:22.870Z,70.50
2018-11-28T01:02:50.983Z,67.63
2018-11-28T01:05:19.018Z,75.40
2018-11-28T01:07:47.211Z,81.73
2018-11-28T01:10:15.600Z,75.90
2018-11-28T01:12:44.053Z,76.07
2018-11-28T01:15:12.356Z,74.60
2018-11-28T01:17:39.887Z,68.83
2018-11-28T01:20:08.771Z,69.03
2018-11-28T01:22:36.407Z,73.43
2018-11-28T01:25:03.955Z,66.17
2018-11-28T01:27:31.649Z,64.70
2018-11-28T01:29:59.228Z,63.77
2018-11-28T01:32:26.799Z,66.80
2018-11-28T01:34:54.438Z,64.47
2018-11-28T01:37:21.964Z,64.30
2018-11-28T01:39:49.596Z,64.13
2018-11-28T01:42:17.392Z,62.73
2018-11-28T01:44:44.996Z,65.00
2018-11-28T01:47:12.576Z,66.13
2018-11-28T01:49:40.046Z,63.20
2018-11-28T01:52:07.615Z,59.77
2018-11-28T01:54:35.275Z,60.47
2018-11-28T01:57:02.882Z,59.93
2018-11-28T01:59:30.542Z,60.63
2018-11-28T02:01:57.988Z,63.77
2018-11-28T02:04:25.542Z,64.97
2018-11-28T02:06:52.978Z,59.50
2018-11-28T02:09:20.423Z,52.50
2018-11-28T02:11:48.066Z,53.40
2018-11-28T02:14:15.651Z,56.23
2018-11-28T02:16:43.090Z,54.13
2018-11-28T02:19:10.599Z,54.17
2018-11-28T02:21:38.352Z,52.53
2018-11-28T02:24:06.243Z,53.93
2018-11-28T02:26:34.366Z,52.63
2018-11-28T02:29:02.258Z,51.63
2018-11-28T02:31:29.848Z,53.53
2018-11-28T02:33:57.782Z,54.07
2018-11-28T02:36:25.247Z,51.63
2018-11-28T02:38:52.704Z,48.93
2018-11-28T02:41:20.373Z,50.93
2018-11-28T02:43:47.962Z,49.63
2018-11-28T02:46:24.292Z,49.73
2018-11-28T02:48:51.996Z,51.67
2018-11-28T02:51:20.197Z,50.07
2018-11-28T02:53:47.791Z,49.37
2018-11-28T02:56:15.255Z,51.00
2018-11-28T02:58:42.709Z,50.13
2018-11-28T03:01:10.348Z,49.27
2018-11-28T03:03:37.795Z,50.30
2018-11-28T03:06:05.909Z,50.57
2018-11-28T03:08:33.403Z,53.23
2018-11-28T03:11:01.104Z,47.83
2018-11-28T03:13:28.594Z,49.20
2018-11-28T03:15:59.122Z,49.27
2018-11-28T03:18:26.581Z,48.40
2018-11-28T03:20:54.012Z,47.53
2018-11-28T03:23:21.523Z,51.23
2018-11-28T03:25:48.957Z,51.43
2018-11-28T03:28:16.381Z,46.17
2018-11-28T03:30:43.938Z,49.37
2018-11-28T03:33:11.390Z,49.43
2018-11-28T03:35:38.819Z,50.53
2018-11-28T03:38:06.412Z,48.53
2018-11-28T03:40:33.923Z,50.80
2018-11-28T03:43:02.238Z,50.20
2018-11-28T03:45:29.902Z,50.13
2018-11-28T03:47:57.611Z,51.73
2018-11-28T03:50:25.047Z,53.43
2018-11-28T03:52:52.650Z,52.27
2018-11-28T03:55:20.324Z,50.97
2018-11-28T03:57:48.240Z,49.70
2018-11-28T04:00:17.059Z,51.00
2018-11-28T04:02:44.547Z,50.77
2018-11-28T04:05:12.391Z,49.57
2018-11-28T04:07:40.037Z,50.57
2018-11-28T04:10:09.168Z,53.40
2018-11-28T04:12:36.676Z,55.83
2018-11-28T04:15:04.897Z,53.73
2018-11-28T04:17:32.326Z,55.77
2018-11-28T04:19:59.771Z,51.50
2018-11-28T04:22:27.349Z,55.63
2018-11-28T04:24:54.807Z,49.73
2018-11-28T04:27:22.389Z,51.00
2018-11-28T04:29:49.886Z,52.43
2018-11-28T04:32:17.430Z,51.73
2018-11-28T04:34:44.871Z,53.97
2018-11-28T04:37:12.378Z,52.17
2018-11-28T04:39:39.817Z,55.60
2018-11-28T04:42:07.600Z,54.40
2018-11-28T04:44:35.100Z,52.37
2018-11-28T04:47:02.664Z,52.67
2018-11-28T04:49:30.621Z,52.43
2018-11-28T04:51:58.240Z,50.87
2018-11-28T04:54:25.784Z,51.20
2018-11-28T04:56:53.322Z,52.90
2018-11-28T04:59:20.945Z,54.83
2018-11-28T05:01:48.706Z,55.30
2018-11-28T05:04:16.212Z,51.97
2018-11-28T05:07:47.927Z,54.50
2018-11-28T05:10:16.975Z,55.03
2018-11-28T05:12:45.472Z,53.77
2018-11-28T05:15:14.588Z,55.33
2018-11-28T05:17:42.168Z,58.37
2018-11-28T05:20:13.390Z,55.80
2018-11-28T05:22:40.982Z,54.43
2018-11-28T05:25:11.406Z,54.67
2018-11-28T05:27:38.854Z,55.70
2018-11-28T05:30:08.826Z,59.50
2018-11-28T05:32:36.396Z,54.37
2018-11-28T05:35:04.060Z,56.43
2018-11-28T05:37:31.607Z,56.87
2018-11-28T05:39:59.584Z,57.70
2018-11-28T05:42:27.194Z,56.10
2018-11-28T05:44:54.674Z,56.87
2018-11-28T05:47:22.226Z,58.07
2018-11-28T05:49:50.057Z,56.70
2018-11-28T05:52:17.620Z,59.77
2018-11-28T05:54:45.193Z,60.07
2018-11-28T05:57:12.944Z,59.77
2018-11-28T05:59:40.515Z,62.23
2018-11-28T06:02:07.967Z,60.03
2018-11-28T06:04:35.430Z,62.30
2018-11-28T06:07:02.900Z,61.03
2018-11-28T06:09:30.577Z,60.27
2018-11-28T06:11:58.194Z,61.90
2018-11-28T06:14:27.223Z,63.73
2018-11-28T06:17:04.086Z,63.30
2018-11-28T06:19:31.962Z,62.63
2018-11-28T06:21:59.672Z,65.50
2018-11-28T06:24:30.223Z,64.80
2018-11-28T06:26:57.935Z,62.60
2018-11-28T06:29:26.059Z,65.70
2018-11-28T06:31:53.523Z,64.90
2018-11-28T06:34:21.120Z,61.77
2018-11-28T06:36:48.694Z,62.70
2018-11-28T06:39:16.551Z,63.20
2018-11-28T06:41:44.203Z,61.70
2018-11-28T06:44:11.755Z,61.30
2018-11-28T06:46:39.345Z,60.80
2018-11-28T06:49:06.895Z,63.33
2018-11-28T06:51:34.579Z,61.83
2018-11-28T06:54:02.108Z,61.57
2018-11-28T06:56:29.627Z,60.47
2018-11-28T06:58:57.129Z,60.83
2018-11-28T07:01:24.605Z,57.07
2018-11-28T07:03:52.457Z,57.63
2018-11-28T07:06:20.230Z,59.53
2018-11-28T07:08:47.974Z,56.10
2018-11-28T07:11:15.619Z,55.37
2018-11-28T07:13:43.150Z,54.87
2018-11-28T07:16:10.675Z,55.70
2018-11-28T07:18:43.783Z,55.50
2018-11-28T07:21:11.320Z,54.17
2018-11-28T07:23:38.821Z,53.50
2018-11-28T07:26:06.347Z,53.03
2018-11-28T07:28:34.036Z,58.67
2018-11-28T07:31:01.606Z,57.30
2018-11-28T07:33:29.275Z,61.60
2018-11-28T07:35:56.840Z,55.87
2018-11-28T07:38:24.373Z,56.83
2018-11-28T07:40:52.071Z,54.57
2018-11-28T07:43:19.698Z,52.13
2018-11-28T07:45:48.099Z,48.37
2018-11-28T07:48:15.710Z,53.20
2018-11-28T07:50:43.203Z,52.83
2018-11-28T07:53:10.661Z,52.30
2018-11-28T07:55:38.181Z,50.33
2018-11-28T07:58:05.899Z,48.90
2018-11-28T08:00:33.421Z,47.87
2018-11-28T08:03:01.020Z,46.70
2018-11-28T08:05:28.701Z,43.67
2018-11-28T08:07:56.255Z,41.90
2018-11-28T08:10:25.815Z,41.93
2018-11-28T08:12:53.951Z,42.97
2018-11-28T08:15:21.682Z,43.73
2018-11-28T08:17:49.188Z,43.07
2018-11-28T08:20:17.097Z,45.07
2018-11-28T08:22:44.620Z,44.57
2018-11-28T08:25:12.977Z,44.17
2018-11-28T08:27:40.715Z,44.33
2018-11-28T08:30:16.733Z,39.10
2018-11-28T08:32:44.234Z,36.90
2018-11-28T08:35:12.202Z,36.60
2018-11-28T08:37:39.710Z,32.97
2018-11-28T08:40:11.187Z,33.53
2018-11-28T08:42:38.634Z,32.93
2018-11-28T08:45:07.412Z,35.00
2018-11-28T08:47:34.841Z,30.57
2018-11-28T08:50:02.312Z,33.57
2018-11-28T08:52:30.650Z,31.13
2018-11-28T08:54:58.114Z,33.03
2018-11-28T08:57:26.179Z,31.67
2018-11-28T08:59:54.230Z,30.83
2018-11-28T09:02:21.669Z,31.93
2018-11-28T09:04:49.133Z,31.33
2018-11-28T09:07:16.649Z,33.07
2018-11-28T09:09:44.101Z,31.47
2018-11-28T09:12:11.563Z,29.57
2018-11-28T09:14:39.109Z,31.27
2018-11-28T09:17:06.572Z,28.50
2018-11-28T09:19:34.063Z,26.17
2018-11-28T09:22:01.629Z,27.57
2018-11-28T09:24:29.558Z,26.97
2018-11-28T09:26:57.071Z,28.60
2018-11-28T09:29:24.581Z,25.70
2018-11-28T09:31:52.029Z,26.37
2018-11-28T09:34:19.549Z,25.40
2018-11-28T09:36:47.123Z,24.80
2018-11-28T09:39:14.629Z,24.37
2018-11-28T09:41:42.206Z,24.37
2018-11-28T09:44:09.691Z,24.03
2018-11-28T09:46:37.281Z,22.63
2018-11-28T09:49:04.813Z,24.07
2018-11-28T09:51:32.748Z,21.73
2018-11-28T09:54:00.213Z,20.17
2018-11-28T09:56:28.003Z,20.83
2018-11-28T09:58:55.611Z,22.90
2018-11-28T10:01:23.406Z,21.30
2018-11-28T10:03:51.167Z,22.67
2018-11-28T10:06:18.891Z,22.83
2018-11-28T10:08:46.331Z,22.57
2018-11-28T10:11:13.970Z,22.43
2018-11-28T10:13:42.196Z,24.37
2018-11-28T10:16:09.882Z,23.47
2018-11-28T10:18:37.596Z,24.40
2018-11-28T10:21:06.044Z,25.03
2018-11-28T10:23:33.955Z,23.37
2018-11-28T10:26:01.606Z,22.53
2018-11-28T10:28:29.110Z,21.00
2018-11-28T10:30:56.610Z,23.27
2018-11-28T10:33:24.354Z,21.70
2018-11-28T10:35:52.495Z,23.77
2018-11-28T10:38:20.127Z,23.50
2018-11-28T10:40:47.728Z,23.33
2018-11-28T10:43:15.419Z,22.33
2018-11-28T10:45:43.099Z,21.13
2018-11-28T10:48:11.784Z,20.27
2018-11-28T10:50:39.427Z,20.07
2018-11-28T10:53:14.389Z,20.77
2018-11-28T10:55:41.987Z,17.17
2018-11-28T10:58:09.679Z,16.03
2018-11-28T11:00:42.639Z,16.67
2018-11-28T11:03:15.916Z,15.70
2018-11-28T11:05:48.949Z,13.53
2018-11-28T11:08:21.880Z,13.83
2018-11-28T11:12:03.908Z,14.17
2018-11-28T11:14:36.763Z,14.07
2018-11-28T11:17:04.467Z,13.43
2018-11-28T11:19:32.141Z,13.63
2018-11-28T11:21:59.723Z,11.27
2018-11-28T11:24:27.339Z,12.07
2018-11-28T11:26:54.943Z,12.50
2018-11-28T11:29:23.291Z,12.30
2018-11-28T11:31:50.867Z,12.57
2018-11-28T11:34:18.627Z,12.63
2018-11-28T11:36:46.395Z,12.37
2018-11-28T11:39:14.230Z,13.80
2018-11-28T11:41:42.145Z,14.00
2018-11-28T11:44:09.617Z,13.90
2018-11-28T11:46:37.334Z,14.50
2018-11-28T11:49:05.202Z,11.87
2018-11-28T11:51:32.652Z,12.53
2018-11-28T11:54:00.823Z,11.57
2018-11-28T11:56:28.997Z,12.33
2018-11-28T11:58:56.457Z,11.97
2018-11-28T12:01:24.167Z,8.57
2018-11-28T12:03:52.663Z,9.37
2018-11-28T12:06:20.132Z,8.33
2018-11-28T12:08:47.727Z,7.77
2018-11-28T12:11:15.250Z,7.57
2018-11-28T12:13:43.089Z,7.70
2018-11-28T12:16:10.577Z,6.90
2018-11-28T12:18:38.353Z,8.50
2018-11-28T12:21:06.583Z,7.97
2018-11-28T12:23:34.103Z,9.10
2018-11-28T12:26:02.387Z,8.90
2018-11-28T12:28:30.186Z,8.63
2018-11-28T12:30:58.044Z,8.67
2018-11-28T12:33:25.679Z,8.83
2018-11-28T12:35:53.450Z,8.63
2018-11-28T12:38:21.707Z,10.57
2018-11-28T12:40:49.613Z,10.00
2018-11-28T12:43:17.293Z,9.57
2018-11-28T12:45:46.003Z,9.73
2018-11-28T12:48:13.441Z,9.97
2018-11-28T12:50:40.866Z,10.70
2018-11-28T12:53:09.515Z,9.33
2018-11-28T12:55:37.431Z,8.97
2018-11-28T12:58:05.808Z,7.00
2018-11-28T13:00:34.800Z,8.70
2018-11-28T13:03:02.658Z,8.73
2018-11-28T13:05:30.240Z,8.70
2018-11-28T13:07:58.717Z,8.17
2018-11-28T13:10:27.837Z,9.23
2018-11-28T13:12:55.469Z,9.13
2018-11-28T13:15:23.540Z,10.27
2018-11-28T13:17:51.147Z,10.77
2018-11-28T13:20:19.311Z,10.13
2018-11-28T13:22:47.482Z,9.43
2018-11-28T13:25:15.627Z,9.17
2018-11-28T13:27:43.391Z,7.60
2018-11-28T13:30:12.790Z,9.03
2018-11-28T13:32:40.873Z,7.97
2018-11-28T13:35:08.349Z,9.80
2018-11-28T13:37:36.310Z,9.27
2018-11-28T13:40:04.054Z,10.07
2018-11-28T13:42:31.664Z,11.10
2018-11-28T13:44:59.154Z,11.07
2018-11-28T13:47:26.616Z,11.03
2018-11-28T13:49:54.735Z,11.50
2018-11-28T13:52:22.218Z,10.77
2018-11-28T13:55:37.297Z,9.93
2018-11-28T13:57:17.842Z,10.77
2018-11-28T13:59:45.460Z,11.83
2018-11-28T14:02:13.114Z,11.37
2018-11-28T14:04:40.669Z,10.87
2018-11-28T14:07:08.328Z,11.10
2018-11-28T14:09:35.878Z,11.23
2018-11-28T14:12:03.356Z,11.60
2018-11-28T14:14:31.090Z,11.27
2018-11-28T14:16:58.750Z,12.37
2018-11-28T14:19:26.296Z,11.93
2018-11-28T14:21:54.192Z,13.07
2018-11-28T14:24:21.673Z,14.73
2018-11-28T14:26:49.264Z,14.33
2018-11-28T14:29:16.993Z,13.77
2018-11-28T14:31:45.238Z,14.57
2018-11-28T14:34:12.756Z,13.63
2018-11-28T14:36:42.312Z,15.30
2018-11-28T14:39:11.254Z,17.57
2018-11-28T14:41:38.812Z,16.27
2018-11-28T14:44:06.418Z,19.37
2018-11-28T14:46:33.922Z,19.77
2018-11-28T14:49:01.665Z,18.93
2018-11-28T14:51:29.417Z,22.10
2018-11-28T14:53:57.586Z,18.83
2018-11-28T14:56:25.768Z,19.00
2018-11-28T14:58:53.452Z,20.73
2018-11-28T15:01:21.006Z,23.13
2018-11-28T15:03:48.604Z,24.23
2018-11-28T15:06:18.292Z,25.57
2018-11-28T15:08:45.743Z,26.87
2018-11-28T15:11:13.793Z,26.70
2018-11-28T15:13:42.074Z,25.60
2018-11-28T15:16:09.459Z,27.70
2018-11-28T15:18:36.955Z,24.67
2018-11-28T15:21:04.970Z,25.40
2018-11-28T15:23:32.671Z,25.47
2018-11-28T15:26:00.527Z,21.57
2018-11-28T15:28:28.035Z,21.27
2018-11-28T15:30:55.556Z,21.70
2018-11-28T15:33:23.231Z,21.27
2018-11-28T15:35:50.712Z,21.03
2018-11-28T15:38:18.355Z,21.13
2018-11-28T15:40:45.877Z,22.73
2018-11-28T15:43:13.610Z,22.80
2018-11-28T15:45:41.311Z,25.43
2018-11-28T15:48:08.835Z,25.70
2018-11-28T15:50:36.617Z,26.73
2018-11-28T15:53:04.065Z,27.60
2018-11-28T15:55:31.571Z,28.27
2018-11-28T15:57:59.145Z,27.90
2018-11-28T16:00:26.869Z,27.80
2018-11-28T16:02:54.620Z,27.80
2018-11-28T16:05:22.349Z,28.20
2018-11-28T16:07:50.013Z,27.90
2018-11-28T16:10:23.037Z,31.07
2018-11-28T16:12:50.619Z,28.30
2018-11-28T16:15:20.119Z,27.33
2018-11-28T16:17:47.654Z,25.10
2018-11-28T16:20:15.209Z,23.77
2018-11-28T16:22:42.702Z,23.40
2018-11-28T16:25:10.944Z,23.33
2018-11-28T16:27:41.780Z,21.73
2018-11-28T16:30:08.217Z,23.67
2018-11-28T16:32:35.807Z,23.20
2018-11-28T16:35:03.879Z,23.27
2018-11-28T16:37:31.723Z,24.80
2018-11-28T16:39:59.201Z,24.47
2018-11-28T16:42:26.871Z,24.00
2018-11-28T16:44:54.387Z,24.87
2018-11-28T16:47:21.849Z,25.70
2018-11-28T16:49:49.350Z,27.10
2018-11-28T16:52:17.377Z,31.47
2018-11-28T16:54:44.996Z,30.90
2018-11-28T16:57:12.805Z,32.80
2018-11-28T16:59:40.247Z,32.30
2018-11-28T17:02:08.133Z,36.17
2018-11-28T17:04:35.845Z,34.40
2018-11-28T17:07:03.609Z,34.70
2018-11-28T17:09:31.122Z,36.87
2018-11-28T17:11:58.774Z,36.90
2018-11-28T17:14:26.231Z,36.83
2018-11-28T17:16:53.712Z,37.30
2018-11-28T17:19:21.310Z,36.70
2018-11-28T17:21:48.850Z,37.37
2018-11-28T17:24:16.428Z,38.73
2018-11-28T17:26:43.971Z,38.93
2018-11-28T17:29:11.469Z,39.53
2018-11-28T17:31:39.087Z,39.33
2018-11-28T17:34:07.038Z,44.47
2018-11-28T17:36:34.893Z,40.90
2018-11-28T17:39:02.735Z,47.07
2018-11-28T17:41:30.391Z,44.10
2018-11-28T17:43:57.938Z,48.40
2018-11-28T17:46:25.453Z,44.53
2018-11-28T17:48:53.088Z,45.37
2018-11-28T17:51:20.951Z,42.00
2018-11-28T17:53:48.679Z,43.80
2018-11-28T17:56:16.119Z,41.67
2018-11-28T17:58:43.599Z,44.47
2018-11-28T18:01:11.419Z,45.17
2018-11-28T18:03:39.105Z,45.93
2018-11-28T18:06:06.523Z,45.80
2018-11-28T18:08:40.928Z,46.20
2018-11-28T18:11:10.571Z,46.50
2018-11-28T18:13:39.618Z,50.87
2018-11-28T18:16:06.316Z,49.20
2018-11-28T18:18:33.797Z,49.83
2018-11-28T18:21:01.277Z,50.07
2018-11-28T18:23:29.730Z,48.83
2018-11-28T18:25:57.492Z,48.47
2018-11-28T18:28:25.162Z,46.17
2018-11-28T18:30:52.886Z,46.83
2018-11-28T18:33:20.391Z,46.37
2018-11-28T18:35:48.128Z,46.43
2018-11-28T18:38:15.932Z,44.33
2018-11-28T18:40:43.451Z,45.63
2018-11-28T18:43:11.302Z,44.53
2018-11-28T18:45:42.953Z,44.93
2018-11-28T18:48:10.396Z,45.30
2018-11-28T18:50:37.852Z,44.03
2018-11-28T18:53:05.707Z,43.50
2018-11-28T18:55:33.294Z,44.17
2018-11-28T18:58:00.751Z,42.60
2018-11-28T19:00:28.635Z,43.97
2018-11-28T19:02:56.491Z,44.17
2018-11-28T19:05:24.051Z,43.07
2018-11-28T19:07:52.135Z,42.77
2018-11-28T19:10:26.001Z,43.60
2018-11-28T19:12:50.047Z,46.10
2018-11-28T19:15:20.621Z,43.47
2018-11-28T19:17:49.179Z,45.43
2018-11-28T19:20:18.731Z,45.83
2018-11-28T19:22:47.345Z,47.17
2018-11-28T19:25:16.272Z,46.57
2018-11-28T19:27:44.487Z,48.53
2018-11-28T19:30:14.022Z,48.10
2018-11-28T19:32:42.137Z,46.50
2018-11-28T19:35:10.355Z,47.63
2018-11-28T19:37:38.256Z,46.43
2018-11-28T19:40:08.771Z,49.87
2018-11-28T19:42:36.243Z,48.50
2018-11-28T19:45:04.202Z,48.57
2018-11-28T19:47:31.851Z,46.73
2018-11-28T19:49:59.399Z,48.50
2018-11-28T19:52:27.241Z,48.67
2018-11-28T19:54:54.817Z,46.93
2018-11-28T19:57:22.375Z,46.93
2018-11-28T19:59:49.968Z,49.07
2018-11-28T20:02:17.431Z,47.90
2018-11-28T20:04:44.866Z,52.00
2018-11-28T20:07:12.587Z,46.17
2018-11-28T20:09:40.069Z,46.77
2018-11-28T20:12:08.235Z,47.83
2018-11-28T20:14:35.775Z,45.97
2018-11-28T20:17:03.389Z,44.77
2018-11-28T20:19:30.968Z,44.13
2018-11-28T20:21:58.571Z,45.73
2018-11-28T20:24:26.448Z,47.90
2018-11-28T20:26:53.960Z,45.63
2018-11-28T20:29:21.806Z,42.27
2018-11-28T20:31:49.386Z,44.37
2018-11-28T20:34:16.832Z,46.33
2018-11-28T20:36:44.666Z,44.53
2018-11-28T20:39:12.376Z,43.77
2018-11-28T20:41:39.979Z,47.07
2018-11-28T20:44:07.497Z,46.00
2018-11-28T20:46:35.214Z,45.23
2018-11-28T20:49:02.756Z,46.00
2018-11-28T20:51:30.682Z,49.90
2018-11-28T20:53:58.305Z,47.83
2018-11-28T20:56:26.061Z,46.70
2018-11-28T20:58:53.632Z,49.13
2018-11-28T21:01:21.137Z,47.70
2018-11-28T21:03:48.884Z,50.33
2018-11-28T21:06:16.500Z,49.80
2018-11-28T21:08:44.008Z,49.87
2018-11-28T21:11:11.604Z,49.97
2018-11-28T21:13:39.581Z,48.80
2018-11-28T21:16:07.249Z,45.53
2018-11-28T21:18:34.796Z,50.67
2018-11-28T21:21:02.755Z,50.20
2018-11-28T21:23:30.237Z,50.97
2018-11-28T21:25:57.988Z,52.37
2018-11-28T21:28:25.874Z,55.90
2018-11-28T21:30:53.644Z,53.87
2018-11-28T21:33:21.117Z,58.80
2018-11-28T21:35:49.495Z,58.03
2018-11-28T21:38:17.214Z,59.50
2018-11-28T21:40:44.728Z,61.47
2018-11-28T21:43:12.388Z,61.80
2018-11-28T21:45:40.016Z,62.60
2018-11-28T21:48:07.488Z,65.37
2018-11-28T21:50:34.981Z,66.80
2018-11-28T21:53:02.644Z,67.07
2018-11-28T21:55:30.366Z,65.43
2018-11-28T21:57:58.304Z,64.70
2018-11-28T22:00:26.269Z,62.37
2018-11-28T22:02:53.866Z,62.07
2018-11-28T22:05:21.576Z,63.53
2018-11-28T22:07:49.191Z,62.47
2018-11-28T22:10:17.541Z,60.47
2018-11-28T22:12:45.093Z,59.23
2018-11-28T22:15:13.013Z,57.87
2018-11-28T22:17:41.167Z,58.67
2018-11-28T22:20:11.127Z,58.17
2018-11-28T22:22:38.616Z,56.90
2018-11-28T22:25:13.062Z,55.50
2018-11-28T22:27:40.646Z,55.93
2018-11-28T22:30:09.303Z,55.13
2018-11-28T22:32:36.931Z,57.30
2018-11-28T22:35:04.371Z,57.60
2018-11-28T22:37:31.829Z,55.03
2018-11-28T22:40:01.197Z,58.37
2018-11-28T22:42:41.651Z,60.83
2018-11-28T22:45:13.011Z,60.77
2018-11-28T22:47:40.691Z,59.50
2018-11-28T22:50:08.935Z,58.57
2018-11-28T22:52:36.613Z,59.37
2018-11-28T22:55:04.193Z,59.70
2018-11-28T22:57:31.739Z,59.37
2018-11-28T22:59:59.360Z,64.23
2018-11-28T23:02:33.333Z,60.97
2018-11-28T23:05:00.884Z,62.93
2018-11-28T23:07:29.174Z,62.63
2018-11-28T23:09:56.893Z,60.70
2018-11-28T23:12:24.722Z,60.07
2018-11-28T23:14:52.480Z,59.03
2018-11-28T23:17:20.925Z,58.80
2018-11-28T23:19:48.600Z,56.03
2018-11-28T23:22:16.107Z,54.73
2018-11-28T23:24:44.403Z,56.17
2018-11-28T23:27:12.045Z,55.63
2018-11-28T23:29:41.090Z,51.93
2018-11-28T23:32:09.961Z,53.40
2018-11-28T23:34:37.732Z,49.30
2018-11-28T23:37:06.306Z,47.87
2018-11-28T23:39:33.890Z,49.73
2018-11-28T23:42:01.492Z,51.57
2018-11-28T23:44:42.817Z,51.50
2018-11-28T23:47:23.335Z,52.27
2018-11-28T23:49:53.695Z,54.60
2018-11-28T23:52:21.815Z,54.20
2018-11-28T23:54:52.609Z,54.17
2018-11-28T23:57:20.337Z,54.87
2018-11-28T23:59:47.973Z,54.03
